Toronto, Canada
Current Conditions -  °F | °C
As of 12:00 AM on Tuesday 21 Oct 2014 (Local Time) from CYYZ Reporting Station
Overcast Overcast  
Wind Chill: 52°   Ceiling: 1900
Heat Index: 52°   Visibility: 8mi
Dew Point: 48°   Wind: 3mph
Humidity: 88%   Direction: 270°W
Pressure: 29.8"   Gusts: NA
Location:  43.65°N, 79.39°W
Report Text: CYYZ 210400Z 27003KT 8SM OVC019 11/09 A2980 RMK SC8 SLP093
Loading
Personal Weather Stations






























Interactive Weather Map New forecast layout! Learn more

10-Day Weather Forecast

Advertisements
Track Severe Weather on mobile